Time;durP1;ratioP1;P1;durP2;ratioP2;P2;SDS_P1;SDS_P2;PMS_P1;PMS_P2;Temp;Humidity;BMP_temperature;BMP_pressure;BME280_temperature;BME280_humidity;BME280_pressure;Samples;Min_cycle;Max_cycle;Signal;HPM_P1;HPM_P2
2022/04/01 00:01:34;;;;;;;28.17;12.75;;;;;;;10.53;100.00;99867.55;1691531;84;21030;-78
2022/04/01 00:04:02;;;;;;;30.32;12.58;;;;;;;10.53;100.00;99850.13;1692024;84;21049;-80
2022/04/01 00:06:29;;;;;;;22.87;11.60;;;;;;;10.54;100.00;99847.03;1651433;84;20987;-81
2022/04/01 00:08:58;;;;;;;23.62;12.35;;;;;;;10.56;100.00;99856.84;1691475;83;21560;-79
2022/04/01 00:11:25;;;;;;;27.00;12.28;;;;;;;10.58;100.00;99850.54;1691729;84;21796;-79
2022/04/01 00:13:53;;;;;;;28.98;12.35;;;;;;;10.58;100.00;99844.52;1691618;83;20991;-79
2022/04/01 00:16:20;;;;;;;27.75;13.58;;;;;;;10.57;100.00;99846.31;1691796;84;21547;-80
2022/04/01 00:18:49;;;;;;;35.08;12.73;;;;;;;10.57;100.00;99818.14;1691609;84;21058;-81
2022/04/01 00:21:16;;;;;;;21.73;12.10;;;;;;;10.55;100.00;99796.63;1691679;83;21066;-79
2022/04/01 00:23:43;;;;;;;25.80;12.93;;;;;;;10.55;100.00;99791.41;1691654;83;21144;-79
2022/04/01 00:26:11;;;;;;;24.35;12.37;;;;;;;10.55;100.00;99782.30;1691698;84;21064;-79
2022/04/01 00:28:38;;;;;;;20.85;12.23;;;;;;;10.54;100.00;99796.27;1691875;84;21121;-79
2022/04/01 00:31:07;;;;;;;23.45;14.33;;;;;;;10.51;100.00;99786.96;1691740;84;21089;-79
2022/04/01 00:33:35;;;;;;;29.90;13.05;;;;;;;10.50;100.00;99804.02;1673882;84;21074;-89
2022/04/01 00:36:02;;;;;;;34.58;13.93;;;;;;;10.50;100.00;99802.72;1691562;84;21186;-89
2022/04/01 00:38:30;;;;;;;25.57;13.70;;;;;;;10.50;100.00;99806.62;1691726;84;21058;-80
2022/04/01 00:40:59;;;;;;;24.92;12.53;;;;;;;10.48;100.00;99803.33;1691277;84;21007;-80
2022/04/01 00:43:30;;;;;;;24.32;13.38;;;;;;;10.47;100.00;99816.83;1691727;83;21575;-79
2022/04/01 00:45:58;;;;;;;32.40;13.68;;;;;;;10.46;100.00;99814.34;1691623;84;21078;-79
2022/04/01 00:48:27;;;;;;;29.37;14.40;;;;;;;10.45;100.00;99814.02;1691753;84;21105;-80
2022/04/01 00:50:55;;;;;;;27.30;13.18;;;;;;;10.43;100.00;99812.03;1691636;83;21611;-79
2022/04/01 00:53:22;;;;;;;27.22;13.72;;;;;;;10.44;100.00;99816.28;1692069;84;21604;-79
2022/04/01 00:55:51;;;;;;;28.20;13.83;;;;;;;10.43;100.00;99807.62;1691558;84;21059;-83
2022/04/01 00:58:19;;;;;;;28.45;13.55;;;;;;;10.44;100.00;99808.47;1691843;83;21066;-80
2022/04/01 01:00:47;;;;;;;24.32;12.75;;;;;;;10.43;100.00;99816.74;1691871;83;21189;-79
2022/04/01 01:03:14;;;;;;;35.30;13.75;;;;;;;10.43;100.00;99802.42;1691656;83;21180;-79
2022/04/01 01:05:43;;;;;;;24.07;13.18;;;;;;;10.44;100.00;99788.46;1691449;84;21078;-79
2022/04/01 01:08:11;;;;;;;26.87;13.05;;;;;;;10.45;100.00;99778.89;1691570;84;21019;-79
2022/04/01 01:10:41;;;;;;;30.27;12.85;;;;;;;10.44;100.00;99772.84;1691695;84;21532;-78
2022/04/01 01:13:11;;;;;;;29.25;12.30;;;;;;;10.45;100.00;99764.58;1685392;84;21090;-79
2022/04/01 01:15:39;;;;;;;37.75;12.80;;;;;;;10.47;100.00;99762.63;1703376;84;21007;-79
2022/04/01 01:18:07;;;;;;;35.45;12.90;;;;;;;10.49;100.00;99769.38;1695290;84;21016;-80
2022/04/01 01:20:35;;;;;;;21.33;12.05;;;;;;;10.51;100.00;99760.13;1694338;84;21024;-80
2022/04/01 01:23:03;;;;;;;42.90;13.28;;;;;;;10.52;100.00;99764.37;1693955;83;21045;-82
2022/04/01 01:25:36;;;;;;;33.23;13.18;;;;;;;10.53;100.00;99767.32;1694230;84;21228;-80
2022/04/01 01:28:04;;;;;;;23.22;12.20;;;;;;;10.54;100.00;99766.34;1693560;84;21032;-83
2022/04/01 01:30:33;;;;;;;29.45;12.63;;;;;;;10.53;100.00;99755.11;1693635;84;21358;-82
2022/04/01 01:33:01;;;;;;;31.48;13.18;;;;;;;10.51;100.00;99745.31;1693960;83;21009;-79
2022/04/01 01:35:33;;;;;;;35.65;13.40;;;;;;;10.51;100.00;99757.52;1694284;84;21064;-89
2022/04/01 01:38:01;;;;;;;21.10;12.05;;;;;;;10.51;100.00;99758.82;1694263;84;22039;-81
2022/04/01 01:40:33;;;;;;;26.27;12.33;;;;;;;10.51;100.00;99752.31;1694122;84;21431;-79
2022/04/01 01:43:00;;;;;;;24.25;12.13;;;;;;;10.50;100.00;99752.77;1694440;84;21092;-79
2022/04/01 01:45:29;;;;;;;26.68;12.53;;;;;;;10.49;100.00;99755.52;1667292;84;21040;-80
2022/04/01 01:47:57;;;;;;;26.77;12.45;;;;;;;10.48;100.00;99739.55;1691716;84;21039;-79
2022/04/01 01:55:55;;;;;;;29.12;12.23;;;;;;;10.41;100.00;99749.22;1691501;84;21115;-79
2022/04/01 01:58:26;;;;;;;28.77;12.10;;;;;;;10.41;100.00;99751.81;1691585;84;21063;-79
2022/04/01 02:00:54;;;;;;;24.63;11.38;;;;;;;10.40;100.00;99738.45;1691600;84;21056;-80
2022/04/01 02:03:23;;;;;;;24.87;12.30;;;;;;;10.41;100.00;99731.00;1691517;84;21102;-80
2022/04/01 02:05:51;;;;;;;31.07;12.95;;;;;;;10.40;100.00;99729.84;1691653;84;21066;-79
2022/04/01 02:08:18;;;;;;;34.53;12.45;;;;;;;10.39;100.00;99734.70;1691491;84;21032;-80
2022/04/01 02:10:47;;;;;;;30.92;12.07;;;;;;;10.39;100.00;99749.02;1691674;84;21146;-80
2022/04/01 02:13:14;;;;;;;21.30;11.55;;;;;;;10.38;100.00;99749.47;1676983;84;21117;-82
2022/04/01 02:15:41;;;;;;;24.57;11.03;;;;;;;10.40;100.00;99753.27;1664121;86;21156;-80
2022/04/01 02:18:10;;;;;;;31.68;11.65;;;;;;;10.44;100.00;99746.81;1663913;86;21011;-79
2022/04/01 02:20:38;;;;;;;33.50;11.20;;;;;;;10.45;100.00;99730.73;1664023;86;21078;-80
2022/04/01 02:23:05;;;;;;;27.07;11.55;;;;;;;10.47;100.00;99730.09;1663858;86;21023;-79
2022/04/01 02:25:32;;;;;;;20.10;10.78;;;;;;;10.48;100.00;99721.34;1664129;86;21110;-79
2022/04/01 02:27:59;;;;;;;24.82;10.40;;;;;;;10.50;100.00;99720.73;1663642;86;21099;-80
2022/04/01 02:30:29;;;;;;;23.38;10.85;;;;;;;10.54;100.00;99710.38;1663789;86;21031;-89
2022/04/01 02:33:06;;;;;;;24.07;9.90;;;;;;;10.58;100.00;99707.85;1633644;86;21477;-80
2022/04/01 02:35:35;;;;;;;24.85;11.20;;;;;;;10.63;100.00;99710.85;1661237;86;21038;-80
2022/04/01 02:38:02;;;;;;;31.45;11.15;;;;;;;10.67;100.00;99703.13;1663834;84;21077;-80
2022/04/01 02:40:31;;;;;;;26.07;9.90;;;;;;;10.71;100.00;99707.08;1616029;86;22022;-80
2022/04/01 02:42:59;;;;;;;25.00;10.45;;;;;;;10.77;100.00;99699.69;1636987;86;21083;-81
2022/04/01 02:45:26;;;;;;;26.75;10.28;;;;;;;10.83;100.00;99697.83;1663802;86;21068;-81
2022/04/01 02:47:54;;;;;;;21.07;9.78;;;;;;;10.86;100.00;99695.77;1663551;84;21567;-81
2022/04/01 02:50:22;;;;;;;28.95;9.78;;;;;;;10.91;100.00;99701.02;1663744;86;21038;-81
2022/04/01 02:52:52;;;;;;;25.90;10.13;;;;;;;10.94;100.00;99703.36;1679307;84;21231;-82
2022/04/01 02:55:19;;;;;;;21.23;9.63;;;;;;;10.96;100.00;99698.34;1691655;84;21660;-87
2022/04/01 02:57:48;;;;;;;31.17;11.33;;;;;;;10.98;100.00;99699.50;1691549;84;21117;-91
2022/04/01 03:00:21;;;;;;;22.22;9.88;;;;;;;10.99;100.00;99700.68;1687475;85;21531;-79
2022/04/01 03:02:50;;;;;;;19.40;9.93;;;;;;;10.99;100.00;99700.68;1685153;84;21008;-80
2022/04/01 03:05:20;;;;;;;19.65;10.05;;;;;;;11.01;100.00;99700.06;1690009;84;21178;-80
2022/04/01 03:07:47;;;;;;;38.45;11.63;;;;;;;11.04;100.00;99697.66;1663593;84;21042;-80
2022/04/01 03:10:17;;;;;;;29.55;10.13;;;;;;;11.05;100.00;99701.41;1666426;84;21037;-79
2022/04/01 03:12:45;;;;;;;28.77;10.58;;;;;;;11.08;100.00;99707.31;1663852;86;21086;-80
2022/04/01 03:15:32;;;;;;;17.92;9.95;;;;;;;11.08;100.00;99690.38;1663533;86;21042;-81
2022/04/01 03:18:18;;;;;;;25.62;10.18;;;;;;;11.08;100.00;99681.27;1631278;88;21287;-80
2022/04/01 03:20:49;;;;;;;29.37;10.45;;;;;;;11.07;100.00;99686.13;1663407;86;21036;-82
2022/04/01 03:23:20;;;;;;;32.03;10.85;;;;;;;11.05;100.00;99674.55;1662339;86;21052;-88
2022/04/01 03:25:52;;;;;;;32.30;10.20;;;;;;;11.04;100.00;99672.41;1663658;86;21608;-80
2022/04/01 03:28:21;;;;;;;28.15;10.82;;;;;;;11.05;100.00;99674.55;1660083;86;21028;-80
2022/04/01 03:30:51;;;;;;;20.23;9.78;;;;;;;11.05;100.00;99671.95;1645741;86;21231;-80
2022/04/01 03:33:19;;;;;;;23.67;10.08;;;;;;;11.07;100.00;99671.30;1637254;86;21079;-81
2022/04/01 03:35:47;;;;;;;28.65;10.03;;;;;;;11.09;100.00;99679.00;1663742;86;21588;-79
2022/04/01 03:38:15;;;;;;;26.23;10.55;;;;;;;11.10;100.00;99685.83;1663842;86;21613;-80
2022/04/01 03:40:49;;;;;;;32.85;10.50;;;;;;;11.09;100.00;99677.70;1680444;84;21011;-81
2022/04/01 03:43:23;;;;;;;24.02;10.43;;;;;;;11.09;100.00;99679.80;1691185;84;21919;-89
2022/04/01 03:45:50;;;;;;;29.50;11.25;;;;;;;11.11;100.00;99675.75;1663523;84;21055;-79
2022/04/01 03:48:31;;;;;;;31.60;10.13;;;;;;;11.11;100.00;99673.98;1684439;84;21486;-79
2022/04/01 03:50:58;;;;;;;23.10;9.98;;;;;;;11.10;100.00;99661.91;1659914;84;21497;-79
2022/04/01 03:53:31;;;;;;;29.32;9.75;;;;;;;11.10;100.00;99655.86;1689771;84;21100;-81
2022/04/01 03:56:06;;;;;;;30.35;11.15;;;;;;;11.11;100.00;99660.11;1683720;85;21531;-79
2022/04/01 03:58:35;;;;;;;27.82;10.00;;;;;;;11.13;100.00;99659.03;1662147;86;21612;-79
2022/04/01 04:01:21;;;;;;;33.20;11.15;;;;;;;11.17;100.00;99657.77;1663310;86;21167;-79
2022/04/01 04:03:50;;;;;;;28.62;9.90;;;;;;;11.21;100.00;99646.58;1637570;86;21533;-79
2022/04/01 04:06:19;;;;;;;25.62;9.18;;;;;;;11.24;100.00;99651.98;1663685;86;21122;-78
2022/04/01 04:08:50;;;;;;;22.20;10.13;;;;;;;11.25;100.00;99650.55;1663309;84;21166;-79
2022/04/01 04:11:26;;;;;;;24.55;10.45;;;;;;;11.26;100.00;99650.06;1677403;84;21113;-89
2022/04/01 04:14:12;;;;;;;24.87;10.30;;;;;;;11.28;100.00;99633.80;1663268;86;21030;-78
2022/04/01 04:16:46;;;;;;;19.45;8.88;;;;;;;11.28;100.00;99648.14;1685475;84;21012;-79
2022/04/01 04:19:30;;;;;;;34.55;9.63;;;;;;;11.30;100.00;99646.19;1690323;84;21023;-79
2022/04/01 04:22:13;;;;;;;26.00;9.73;;;;;;;11.31;100.00;99649.98;1685119;84;21099;-80
2022/04/01 04:24:58;;;;;;;23.42;8.98;;;;;;;11.35;100.00;99646.10;1651732;86;21047;-80
2022/04/01 04:27:30;;;;;;;27.73;9.28;;;;;;;11.42;100.00;99661.16;1666574;84;21052;-81
2022/04/01 04:30:09;;;;;;;28.90;9.63;;;;;;;11.48;100.00;99660.11;1691538;84;21040;-80
2022/04/01 04:33:08;;;;;;;25.75;9.45;;;;;;;11.54;100.00;99650.09;1690540;84;20924;-80
2022/04/01 04:35:43;;;;;;;26.40;9.28;;;;;;;11.59;100.00;99650.45;1678537;84;21358;-79
2022/04/01 04:38:13;;;;;;;23.15;8.90;;;;;;;11.63;100.00;99636.16;1657833;86;21031;-81
2022/04/01 04:40:43;;;;;;;27.73;9.70;;;;;;;11.65;100.00;99632.45;1657970;86;21134;-91
2022/04/01 04:43:18;;;;;;;30.30;9.63;;;;;;;11.68;100.00;99638.66;1642642;86;21126;-81
2022/04/01 04:45:49;;;;;;;28.15;9.98;;;;;;;11.72;100.00;99638.38;1659487;86;21103;-80
2022/04/01 04:48:20;;;;;;;26.83;9.33;;;;;;;11.74;100.00;99637.27;1663455;84;21176;-79
2022/04/01 04:50:58;;;;;;;26.20;9.38;;;;;;;11.75;100.00;99638.91;1639824;84;21055;-82
2022/04/01 04:53:30;;;;;;;28.90;9.50;;;;;;;11.78;100.00;99641.70;1663443;84;21062;-81
2022/04/01 04:55:59;;;;;;;29.60;10.15;;;;;;;11.81;100.00;99627.07;1691274;84;21062;-80
2022/04/01 04:58:39;;;;;;;28.95;9.93;;;;;;;11.81;100.00;99631.80;1691529;84;21036;-79
2022/04/01 05:01:39;;;;;;;24.47;8.98;;;;;;;11.84;100.00;99635.89;1691556;84;21244;-79
2022/04/01 05:04:39;;;;;;;24.35;9.43;;;;;;;11.89;100.00;99641.50;1690743;84;22013;-79
2022/04/01 05:07:34;;;;;;;25.95;9.15;;;;;;;11.96;100.00;99645.16;1687829;84;21565;-80
2022/04/01 05:10:18;;;;;;;25.62;9.20;;;;;;;12.02;100.00;99656.80;1614113;84;21079;-80
2022/04/01 05:13:02;;;;;;;34.23;9.30;;;;;;;12.09;100.00;99634.85;1691107;84;21130;-79
2022/04/01 05:15:54;;;;;;;24.82;8.18;;;;;;;12.16;100.00;99633.28;1690668;84;21657;-79
2022/04/01 05:18:51;;;;;;;26.80;9.88;;;;;;;12.28;100.00;99624.27;1688781;83;21094;-81
2022/04/01 05:21:22;;;;;;;34.78;8.68;;;;;;;12.39;100.00;99630.20;1689254;84;21036;-80
2022/04/01 05:23:54;;;;;;;23.70;7.92;;;;;;;12.47;100.00;99627.66;1686759;84;21043;-79
2022/04/01 05:26:38;;;;;;;22.55;8.43;;;;;;;12.56;100.00;99624.14;1690389;84;21078;-85
2022/04/01 05:29:21;;;;;;;20.45;8.05;;;;;;;12.65;100.00;99613.75;1687754;84;21786;-78
2022/04/01 05:31:55;;;;;;;27.22;9.88;;;;;;;12.75;100.00;99613.17;1686681;84;21153;-82
2022/04/01 05:34:47;;;;;;;28.55;8.45;;;;;;;12.82;99.70;99615.99;1686629;84;21074;-81
2022/04/01 05:37:17;;;;;;;27.50;8.73;;;;;;;12.86;99.74;99616.00;1686882;83;21078;-81
2022/04/01 05:39:47;;;;;;;21.17;8.43;;;;;;;12.90;100.00;99619.94;1688882;84;21110;-81
2022/04/01 05:42:25;;;;;;;16.87;7.53;;;;;;;12.92;100.00;99616.22;1690912;84;21090;-80
2022/04/01 05:44:57;;;;;;;18.12;7.45;;;;;;;12.97;98.45;99614.91;1684174;84;21079;-79
2022/04/01 05:47:26;;;;;;;25.02;9.03;;;;;;;13.01;98.76;99620.18;1656710;86;21149;-80
2022/04/01 05:49:58;;;;;;;47.97;31.27;;;;;;;13.07;98.36;99619.55;1691275;83;21078;-80
2022/04/01 05:52:26;;;;;;;58.92;13.53;;;;;;;13.15;96.65;99611.75;1688826;84;21329;-78
2022/04/01 05:54:57;;;;;;;69.22;11.48;;;;;;;13.27;100.00;99607.06;1662980;84;21176;-79
2022/04/01 05:57:26;;;;;;;64.40;10.65;;;;;;;13.49;100.00;99598.33;1691724;84;21106;-79
2022/04/01 05:59:55;;;;;;;50.28;9.28;;;;;;;13.64;100.00;99601.96;1692951;83;21090;-79
2022/04/01 06:02:41;;;;;;;40.30;9.30;;;;;;;13.75;100.00;99596.91;1668748;84;21037;-79
2022/04/01 06:05:25;;;;;;;39.25;9.58;;;;;;;13.83;100.00;99594.31;1685687;84;21043;-79
2022/04/01 06:08:36;;;;;;;35.15;9.28;;;;;;;13.92;100.00;99586.00;1683230;84;21334;-82
2022/04/01 06:11:38;;;;;;;36.30;9.65;;;;;;;14.01;100.00;99581.09;1655094;86;21146;-79
2022/04/01 06:14:43;;;;;;;53.00;9.08;;;;;;;14.10;100.00;99576.67;1606104;86;21017;-81
2022/04/01 06:17:56;;;;;;;38.02;8.80;;;;;;;14.17;100.00;99580.27;1663471;86;21020;-82
2022/04/01 06:20:26;;;;;;;30.10;8.95;;;;;;;14.26;97.47;99578.95;1642518;86;21055;-78
2022/04/01 06:23:17;;;;;;;28.73;8.73;;;;;;;14.36;100.00;99576.48;1663640;86;21158;-80
2022/04/01 06:25:49;;;;;;;28.00;8.70;;;;;;;14.45;96.29;99579.09;1684016;84;21083;-79
2022/04/01 06:28:27;;;;;;;29.85;8.98;;;;;;;14.54;94.33;99577.30;1699821;84;21035;-78
2022/04/01 06:31:04;;;;;;;31.93;8.30;;;;;;;14.65;92.18;99576.45;1701975;84;21524;-86
2022/04/01 06:34:23;;;;;;;25.82;8.45;;;;;;;14.78;94.09;99574.63;1682561;85;21515;-78
2022/04/01 06:37:15;;;;;;;24.43;7.87;;;;;;;14.89;96.46;99561.67;1605527;88;21459;-80
2022/04/01 06:40:00;;;;;;;31.42;8.58;;;;;;;15.04;91.19;99531.62;1584011;89;21204;-81
2022/04/01 06:42:34;;;;;;;32.23;8.43;;;;;;;15.10;85.53;99529.62;1639078;84;21099;-79
2022/04/01 06:45:10;;;;;;;26.70;8.15;;;;;;;15.16;83.08;99545.16;1647329;86;21137;-82
2022/04/01 06:47:57;;;;;;;29.18;8.78;;;;;;;15.21;88.61;99532.38;1701167;84;21535;-78
2022/04/01 06:50:25;;;;;;;28.67;8.10;;;;;;;15.27;84.15;99533.47;1705847;84;21153;-78
2022/04/01 06:53:12;;;;;;;27.10;7.67;;;;;;;15.34;82.05;99529.67;1706012;84;21090;-79
2022/04/01 06:55:56;;;;;;;18.42;7.22;;;;;;;15.41;80.96;99518.33;1665454;86;21626;-83
2022/04/01 06:58:30;;;;;;;25.23;9.10;;;;;;;15.50;78.15;99518.27;1657670;85;21150;-84
2022/04/01 07:00:58;;;;;;;27.48;8.70;;;;;;;15.58;79.83;99502.48;1702363;84;21071;-81
2022/04/01 07:03:26;;;;;;;45.67;9.05;;;;;;;15.69;82.66;99518.30;1691562;84;22449;-78
2022/04/01 07:05:53;;;;;;;23.73;7.80;;;;;;;15.80;87.33;99511.31;1690839;84;21122;-78
2022/04/01 07:08:21;;;;;;;26.90;7.85;;;;;;;15.93;76.88;99518.14;1690775;84;21095;-78
2022/04/01 07:10:50;;;;;;;26.95;7.87;;;;;;;16.07;77.62;99509.16;1690771;84;21596;-85
2022/04/01 07:13:18;;;;;;;31.90;7.60;;;;;;;16.19;81.94;99493.78;1690899;84;21119;-85
2022/04/01 07:15:45;;;;;;;34.48;8.95;;;;;;;16.28;76.08;99488.77;1690985;84;21823;-80
2022/04/01 07:18:12;;;;;;;32.40;8.08;;;;;;;16.35;77.12;99497.55;1690719;84;21086;-79
2022/04/01 07:20:40;;;;;;;31.82;9.20;;;;;;;16.41;73.81;99493.39;1690850;84;21044;-79
2022/04/01 07:23:07;;;;;;;24.95;7.90;;;;;;;16.46;79.55;99496.80;1657306;86;22313;-81
2022/04/01 07:25:35;;;;;;;30.55;8.33;;;;;;;16.51;76.85;99501.00;1690692;83;21090;-81
2022/04/01 07:28:02;;;;;;;27.13;7.75;;;;;;;16.55;73.19;99506.19;1690970;84;21614;-80
2022/04/01 07:30:31;;;;;;;26.05;7.58;;;;;;;16.59;71.67;99515.36;1686165;84;21059;-82
2022/04/01 07:32:59;;;;;;;23.77;7.53;;;;;;;16.65;73.38;99511.19;1685809;84;21157;-86
2022/04/01 07:35:27;;;;;;;22.48;7.50;;;;;;;16.64;72.59;99510.36;1686689;84;21103;-81
2022/04/01 07:37:54;;;;;;;29.12;8.23;;;;;;;16.63;71.91;99510.04;1687136;84;21101;-78
2022/04/01 07:40:24;;;;;;;24.47;7.97;;;;;;;16.67;71.95;99512.64;1683698;84;21165;-78
2022/04/01 07:42:53;;;;;;;20.43;8.38;;;;;;;16.76;75.60;99522.55;1674851;84;21046;-78
2022/04/01 07:45:21;;;;;;;30.27;8.43;;;;;;;16.92;74.56;99525.48;1690836;84;21018;-78
2022/04/01 07:47:51;;;;;;;25.37;7.60;;;;;;;17.11;70.68;99512.77;1690319;84;22211;-79
2022/04/01 07:50:21;;;;;;;27.50;8.23;;;;;;;17.27;73.93;99504.66;1691187;84;21145;-82
2022/04/01 07:52:48;;;;;;;23.98;7.78;;;;;;;17.41;71.96;99484.56;1657536;86;22027;-81
2022/04/01 07:55:17;;;;;;;25.70;8.18;;;;;;;17.49;69.01;99493.66;1646140;84;21595;-80
2022/04/01 07:57:47;;;;;;;28.75;8.00;;;;;;;17.59;68.42;99505.17;1688637;84;21058;-87
2022/04/01 08:00:17;;;;;;;30.12;8.43;;;;;;;17.65;69.20;99520.23;1686444;84;21133;-80
2022/04/01 08:02:47;;;;;;;26.45;8.63;;;;;;;17.71;67.76;99502.05;1690945;84;21044;-79
2022/04/01 08:05:14;;;;;;;23.33;7.93;;;;;;;17.77;66.99;99507.86;1691090;83;21306;-79
2022/04/01 08:07:41;;;;;;;29.00;7.20;;;;;;;17.84;65.02;99515.31;1690562;84;21094;-80
2022/04/01 08:10:11;;;;;;;23.70;8.00;;;;;;;17.92;66.16;99528.34;1678911;84;21061;-79
2022/04/01 08:12:40;;;;;;;;;;;;;;;18.03;66.05;99530.19;1690683;84;21995;-80
2022/04/01 08:15:11;;;;;;;26.40;7.97;;;;;;;18.12;66.01;99507.46;1689593;84;20151;-80
2022/04/01 08:17:40;;;;;;;29.50;7.72;;;;;;;18.26;64.74;99503.10;1688994;84;21122;-80
2022/04/01 08:20:12;;;;;;;29.92;9.03;;;;;;;18.40;64.41;99503.17;1666867;84;21059;-85
2022/04/01 08:22:40;;;;;;;29.02;7.50;;;;;;;18.61;64.20;99508.88;1680531;84;21067;-78
2022/04/01 08:25:11;;;;;;;31.02;8.18;;;;;;;18.61;64.20;99508.88;1671119;84;21525;-82
2022/04/01 08:27:38;;;;;;;29.00;7.90;;;;;;;18.67;63.74;99501.48;1661908;86;21380;-83
2022/04/01 08:30:07;;;;;;;28.62;7.75;;;;;;;18.75;65.19;99499.20;1662237;84;21084;-82
2022/04/01 08:32:37;;;;;;;27.98;9.50;;;;;;;18.87;63.92;99504.22;1672948;84;21109;-79
2022/04/01 08:35:07;;;;;;;29.40;8.68;;;;;;;19.05;63.11;99494.48;1677472;84;21066;-80
2022/04/01 08:37:35;;;;;;;41.00;8.90;;;;;;;19.22;63.29;99483.05;1691363;84;21080;-80
2022/04/01 08:40:05;;;;;;;37.83;8.38;;;;;;;19.38;63.93;99488.97;1666785;84;21074;-81
2022/04/01 08:42:32;;;;;;;42.10;8.03;;;;;;;19.49;63.05;99481.79;1663383;86;21302;-93
2022/04/01 08:45:02;;;;;;;26.23;7.05;;;;;;;19.58;61.54;99481.08;1679002;84;21082;-88
2022/04/01 08:47:29;;;;;;;25.75;7.50;;;;;;;19.64;60.39;99467.05;1669385;84;21106;-81
2022/04/01 08:49:57;;;;;;;25.68;7.65;;;;;;;19.75;59.79;99464.83;1670885;84;21058;-82
2022/04/01 08:52:24;;;;;;;31.52;7.53;;;;;;;19.84;59.60;99456.52;1691675;84;21686;-79
2022/04/01 08:54:51;;;;;;;39.78;8.83;;;;;;;19.87;59.76;99439.44;1691375;84;21141;-79
2022/04/01 08:57:21;;;;;;;32.03;8.98;;;;;;;19.92;58.51;99438.83;1691334;84;21016;-78
2022/04/01 08:59:49;;;;;;;35.58;8.30;;;;;;;19.97;60.02;99439.05;1667066;84;21074;-80
2022/04/01 09:02:17;;;;;;;30.17;7.70;;;;;;;20.01;59.59;99414.66;1691027;84;21032;-80
2022/04/01 09:04:44;;;;;;;37.85;8.23;;;;;;;20.11;59.38;99414.73;1689866;84;21064;-78
2022/04/01 09:07:14;;;;;;;25.88;7.50;;;;;;;20.24;58.42;99421.30;1690757;84;22255;-79
2022/04/01 09:09:44;;;;;;;26.07;7.70;;;;;;;20.39;57.72;99402.52;1690750;84;22285;-78
2022/04/01 09:12:16;;;;;;;29.18;7.25;;;;;;;20.51;55.32;99405.32;1690160;84;21765;-84
2022/04/01 09:14:54;;;;;;;38.05;8.40;;;;;;;20.57;55.70;99404.50;1690630;83;21128;-85
2022/04/01 09:17:22;;;;;;;31.33;8.43;;;;;;;20.65;56.26;99416.16;1690870;84;21054;-81
2022/04/01 09:20:07;;;;;;;31.97;7.62;;;;;;;20.68;53.87;99416.73;1685641;84;21220;-80
2022/04/01 09:22:35;;;;;;;29.70;7.78;;;;;;;20.71;56.00;99417.13;1690523;83;21543;-81
2022/04/01 09:25:08;;;;;;;28.17;7.53;;;;;;;20.80;54.98;99398.70;1691326;84;21620;-84
2022/04/01 09:27:51;;;;;;;22.93;7.17;;;;;;;20.95;53.87;99414.81;1663851;84;21016;-79
2022/04/01 09:30:35;;;;;;;34.03;8.60;;;;;;;21.08;52.44;99415.22;1662919;86;22015;-78
2022/04/01 09:33:05;;;;;;;35.20;8.20;;;;;;;21.13;52.52;99411.44;1677569;84;21103;-78
2022/04/01 09:35:33;;;;;;;27.07;6.85;;;;;;;21.12;52.86;99412.46;1675902;84;20983;-81
2022/04/01 09:38:09;;;;;;;30.27;7.60;;;;;;;21.11;51.73;99397.60;1687055;84;21521;-81
2022/04/01 09:40:35;;;;;;;34.25;8.18;;;;;;;21.16;51.70;99400.93;1669643;84;21095;-77
2022/04/01 09:43:02;;;;;;;32.85;8.08;;;;;;;21.26;51.41;99393.33;1691077;84;21630;-79
2022/04/01 09:45:35;;;;;;;33.42;7.20;;;;;;;21.38;51.44;99400.86;1646466;86;21233;-79
2022/04/01 09:48:10;;;;;;;38.75;7.97;;;;;;;21.47;50.98;99382.88;1624939;86;21092;-81
2022/04/01 09:50:41;;;;;;;41.00;7.17;;;;;;;21.57;50.54;99399.59;1629629;87;21096;-82
2022/04/01 09:53:19;;;;;;;41.40;7.47;;;;;;;21.64;49.28;99375.20;1602058;88;21056;-79
2022/04/01 09:55:51;;;;;;;33.55;7.95;;;;;;;21.70;48.96;99396.84;1654855;86;21086;-81
2022/04/01 09:58:21;;;;;;;31.10;7.55;;;;;;;21.74;49.32;99384.80;1628193;87;21147;-81
2022/04/01 10:00:51;;;;;;;40.00;7.83;;;;;;;21.83;49.22;99382.66;1636812;87;21082;-83
2022/04/01 10:03:19;;;;;;;29.90;6.87;;;;;;;21.93;48.93;99384.79;1647200;86;21078;-79
2022/04/01 10:05:48;;;;;;;23.87;7.30;;;;;;;22.03;47.80;99387.75;1666046;86;21184;-80
2022/04/01 10:08:16;;;;;;;33.08;7.50;;;;;;;22.13;48.58;99392.52;1659167;86;21154;-90
2022/04/01 10:10:45;;;;;;;39.35;8.35;;;;;;;22.18;46.85;99386.56;1638184;85;21122;-87
2022/04/01 10:13:29;;;;;;;28.67;7.25;;;;;;;22.17;46.82;99380.96;1691679;84;21026;-81
2022/04/01 10:16:00;;;;;;;38.78;7.65;;;;;;;22.19;46.88;99388.19;1635659;85;21173;-84
2022/04/01 10:18:29;;;;;;;30.72;7.00;;;;;;;22.14;46.92;99379.57;1654997;86;21096;-81
2022/04/01 10:21:00;;;;;;;33.48;7.10;;;;;;;22.19;46.37;99373.08;1622283;87;21105;-80
2022/04/01 10:23:28;;;;;;;34.40;6.75;;;;;;;22.31;46.25;99374.99;1624907;87;21228;-82
2022/04/01 10:26:04;;;;;;;30.70;7.30;;;;;;;22.45;46.36;99369.05;1692210;84;21047;-80
2022/04/01 10:28:31;;;;;;;27.73;6.78;;;;;;;22.64;45.99;99375.11;1692184;84;21138;-82
2022/04/01 10:31:03;;;;;;;31.33;7.37;;;;;;;22.79;44.81;99374.18;1692375;84;21087;-82
2022/04/01 10:33:38;;;;;;;23.20;6.62;;;;;;;22.80;44.51;99374.48;1671694;84;21093;-83
2022/04/01 10:36:23;;;;;;;28.73;7.22;;;;;;;22.77;44.13;99366.95;1644568;86;21170;-81
2022/04/01 10:39:05;;;;;;;25.90;7.75;;;;;;;22.71;43.93;99369.73;1590733;86;21209;-82
2022/04/01 10:41:33;;;;;;;26.87;6.70;;;;;;;22.60;44.16;99361.49;1634106;87;21119;-88
2022/04/01 10:44:02;;;;;;;25.80;7.17;;;;;;;22.54;44.61;99359.75;1637945;87;21078;-81
2022/04/01 10:46:29;;;;;;;31.40;7.67;;;;;;;22.51;43.93;99350.90;1659705;86;21090;-88
2022/04/01 10:53:41;;;;;;;26.20;6.67;;;;;;;22.52;44.53;99374.53;1623789;86;21137;-86
2022/04/01 10:56:27;;;;;;;33.90;7.00;;;;;;;22.59;43.44;99370.48;1690433;84;21131;-87
2022/04/01 10:59:04;;;;;;;26.87;7.40;;;;;;;22.65;44.02;99376.20;1676152;84;21088;-87
2022/04/01 11:01:34;;;;;;;27.55;7.72;;;;;;;22.72;43.80;99368.16;1661486;84;21065;-84
2022/04/01 11:04:19;;;;;;;29.18;7.70;;;;;;;22.76;44.21;99365.87;1690564;84;21181;-85
2022/04/01 11:07:05;;;;;;;41.13;8.15;;;;;;;22.85;44.13;99361.33;1677597;84;21121;-83
2022/04/01 11:10:00;;;;;;;34.78;7.65;;;;;;;23.00;42.84;99350.80;1683092;84;21063;-86
2022/04/01 11:12:39;;;;;;;29.87;7.12;;;;;;;23.07;43.32;99346.72;1668802;84;21520;-82
2022/04/01 11:15:16;;;;;;;34.40;7.78;;;;;;;23.13;42.14;99352.44;1674305;84;22181;-80
2022/04/01 11:17:50;;;;;;;32.85;8.60;;;;;;;23.16;41.79;99345.35;1684537;84;21098;-81
2022/04/01 11:20:28;;;;;;;29.15;7.65;;;;;;;23.14;41.95;99330.98;1668089;84;21145;-80
2022/04/01 11:23:02;;;;;;;30.43;7.28;;;;;;;23.13;41.73;99323.23;1676227;84;21169;-81
2022/04/01 11:25:36;;;;;;;34.13;7.55;;;;;;;23.16;41.32;99334.20;1682036;84;21663;-80
2022/04/01 11:28:14;;;;;;;33.90;8.80;;;;;;;23.20;41.47;99333.25;1666522;84;21001;-81
2022/04/01 11:35:09;;;;;;;31.05;7.17;;;;;;;23.26;41.26;99332.86;1661401;86;21034;-89
2022/04/01 11:37:41;;;;;;;26.73;7.03;;;;;;;23.38;40.91;99332.86;1686712;83;21066;-81
2022/04/01 11:40:13;;;;;;;33.92;7.53;;;;;;;23.38;41.07;99331.53;1697702;84;21649;-79
2022/04/01 11:43:07;;;;;;;27.62;8.53;;;;;;;23.39;40.68;99319.88;1687747;84;21130;-82
2022/04/01 11:45:44;;;;;;;33.65;8.43;;;;;;;23.37;40.26;99320.11;1668345;84;21151;-84
2022/04/01 11:48:35;;;;;;;28.05;7.65;;;;;;;23.30;39.92;99322.08;1661630;86;21090;-79
2022/04/01 11:51:14;;;;;;;42.17;8.70;;;;;;;23.20;40.37;99313.34;1661602;85;21853;-85
2022/04/01 11:53:48;;;;;;;30.75;7.45;;;;;;;23.16;40.33;99312.16;1682020;84;21045;-83
2022/04/01 11:56:18;;;;;;;36.65;8.58;;;;;;;23.13;40.91;99325.39;1656938;86;21611;-81
2022/04/01 11:59:04;;;;;;;40.12;8.45;;;;;;;23.17;40.26;99319.09;1670745;84;21636;-83
2022/04/01 12:01:54;;;;;;;33.73;8.18;;;;;;;23.15;40.00;99316.65;1668471;84;21067;-80